sensor_id;sensor_type;location;lat;lon;timestamp;temperature;humidity
75357;HTU21D;63946;51.986;5.930;2024-03-07T05:44:22;4.95;75.06
75357;HTU21D;63946;51.986;5.930;2024-03-07T05:46:51;4.94;75.12
75357;HTU21D;63946;51.986;5.930;2024-03-07T05:49:20;4.94;75.06
75357;HTU21D;63946;51.986;5.930;2024-03-07T05:51:49;4.92;75.02
75357;HTU21D;63946;51.986;5.930;2024-03-07T05:54:18;4.91;74.99
75357;HTU21D;63946;51.986;5.930;2024-03-07T05:56:47;4.90;74.95
75357;HTU21D;63946;51.986;5.930;2024-03-07T05:59:16;4.92;74.92
75357;HTU21D;63946;51.986;5.930;2024-03-07T06:01:46;4.92;74.83
75357;HTU21D;63946;51.986;5.930;2024-03-07T06:04:16;4.92;74.72
75357;HTU21D;63946;51.986;5.930;2024-03-07T06:06:45;4.92;74.65
75357;HTU21D;63946;51.986;5.930;2024-03-07T06:09:14;4.91;74.54
75357;HTU21D;63946;51.986;5.930;2024-03-07T06:11:47;4.89;74.55
75357;HTU21D;63946;51.986;5.930;2024-03-07T06:14:17;4.89;74.57
75357;HTU21D;63946;51.986;5.930;2024-03-07T06:16:46;4.88;74.51
75357;HTU21D;63946;51.986;5.930;2024-03-07T06:19:15;4.86;74.47
75357;HTU21D;63946;51.986;5.930;2024-03-07T06:21:43;4.86;74.52
75357;HTU21D;63946;51.986;5.930;2024-03-07T06:24:12;4.83;74.51
75357;HTU21D;63946;51.986;5.930;2024-03-07T06:26:43;4.79;74.41
75357;HTU21D;63946;51.986;5.930;2024-03-07T06:29:25;4.77;74.44
75357;HTU21D;63946;51.986;5.930;2024-03-07T06:31:55;4.75;74.42
75357;HTU21D;63946;51.986;5.930;2024-03-07T06:34:24;4.73;74.38
75357;HTU21D;63946;51.986;5.930;2024-03-07T06:36:54;4.69;74.41
75357;HTU21D;63946;51.986;5.930;2024-03-07T06:39:23;4.66;74.43
75357;HTU21D;63946;51.986;5.930;2024-03-07T06:41:52;4.63;74.40
75357;HTU21D;63946;51.986;5.930;2024-03-07T06:44:21;4.63;74.44
75357;HTU21D;63946;51.986;5.930;2024-03-07T06:46:51;4.64;74.40
75357;HTU21D;63946;51.986;5.930;2024-03-07T06:49:23;4.63;74.34
75357;HTU21D;63946;51.986;5.930;2024-03-07T06:51:51;4.64;74.35
75357;HTU21D;63946;51.986;5.930;2024-03-07T06:54:20;4.67;74.22
75357;HTU21D;63946;51.986;5.930;2024-03-07T06:56:52;4.69;74.18
75357;HTU21D;63946;51.986;5.930;2024-03-07T06:59:21;4.72;74.14
75357;HTU21D;63946;51.986;5.930;2024-03-07T07:01:49;4.74;74.04
75357;HTU21D;63946;51.986;5.930;2024-03-07T07:04:20;4.77;73.94
75357;HTU21D;63946;51.986;5.930;2024-03-07T07:06:51;4.79;73.78
75357;HTU21D;63946;51.986;5.930;2024-03-07T07:09:21;4.81;73.68
75357;HTU21D;63946;51.986;5.930;2024-03-07T07:11:49;4.87;73.61
75357;HTU21D;63946;51.986;5.930;2024-03-07T07:14:18;4.90;73.50
75357;HTU21D;63946;51.986;5.930;2024-03-07T07:16:47;4.94;73.28
75357;HTU21D;63946;51.986;5.930;2024-03-07T07:19:16;4.91;73.25
75357;HTU21D;63946;51.986;5.930;2024-03-07T07:21:51;4.91;73.03
75357;HTU21D;63946;51.986;5.930;2024-03-07T07:24:20;4.91;72.89
75357;HTU21D;63946;51.986;5.930;2024-03-07T07:26:51;4.89;72.72
75357;HTU21D;63946;51.986;5.930;2024-03-07T07:29:20;4.93;72.75
75357;HTU21D;63946;51.986;5.930;2024-03-07T07:31:49;4.96;72.66
75357;HTU21D;63946;51.986;5.930;2024-03-07T07:34:21;5.01;72.41
75357;HTU21D;63946;51.986;5.930;2024-03-07T07:36:51;5.03;72.24
75357;HTU21D;63946;51.986;5.930;2024-03-07T07:39:21;5.05;72.06
75357;HTU21D;63946;51.986;5.930;2024-03-07T07:41:50;5.07;71.93
75357;HTU21D;63946;51.986;5.930;2024-03-07T07:44:19;5.10;71.88
75357;HTU21D;63946;51.986;5.930;2024-03-07T07:46:48;5.11;71.68
75357;HTU21D;63946;51.986;5.930;2024-03-07T07:49:17;5.16;71.58
75357;HTU21D;63946;51.986;5.930;2024-03-07T07:51:46;5.23;71.39
75357;HTU21D;63946;51.986;5.930;2024-03-07T07:54:16;5.32;71.09
75357;HTU21D;63946;51.986;5.930;2024-03-07T07:56:44;5.39;70.97
75357;HTU21D;63946;51.986;5.930;2024-03-07T07:59:13;5.49;70.79
75357;HTU21D;63946;51.986;5.930;2024-03-07T08:01:42;5.50;70.47
75357;HTU21D;63946;51.986;5.930;2024-03-07T08:04:21;5.55;70.46
75357;HTU21D;63946;51.986;5.930;2024-03-07T08:06:49;5.61;70.27
75357;HTU21D;63946;51.986;5.930;2024-03-07T08:09:18;5.66;70.10
75357;HTU21D;63946;51.986;5.930;2024-03-07T08:11:47;5.68;69.45
75357;HTU21D;63946;51.986;5.930;2024-03-07T08:14:18;5.69;69.50
75357;HTU21D;63946;51.986;5.930;2024-03-07T08:16:50;5.80;69.36
75357;HTU21D;63946;51.986;5.930;2024-03-07T08:19:20;5.87;69.09
75357;HTU21D;63946;51.986;5.930;2024-03-07T08:21:49;5.97;68.62
75357;HTU21D;63946;51.986;5.930;2024-03-07T08:24:18;6.08;68.55
75357;HTU21D;63946;51.986;5.930;2024-03-07T08:26:47;6.25;68.30
75357;HTU21D;63946;51.986;5.930;2024-03-07T08:29:16;6.48;67.76
75357;HTU21D;63946;51.986;5.930;2024-03-07T08:31:45;6.54;66.70
75357;HTU21D;63946;51.986;5.930;2024-03-07T08:34:13;6.35;66.89
75357;HTU21D;63946;51.986;5.930;2024-03-07T08:36:42;6.31;67.27
75357;HTU21D;63946;51.986;5.930;2024-03-07T08:39:13;6.35;67.38
75357;HTU21D;63946;51.986;5.930;2024-03-07T08:41:41;6.23;67.20
75357;HTU21D;63946;51.986;5.930;2024-03-07T08:44:12;6.19;67.35
75357;HTU21D;63946;51.986;5.930;2024-03-07T08:46:41;6.21;67.43
75357;HTU21D;63946;51.986;5.930;2024-03-07T08:49:10;6.27;67.43
75357;HTU21D;63946;51.986;5.930;2024-03-07T08:51:42;6.31;67.20
75357;HTU21D;63946;51.986;5.930;2024-03-07T08:54:11;6.27;67.04
75357;HTU21D;63946;51.986;5.930;2024-03-07T08:56:40;6.29;67.18
75357;HTU21D;63946;51.986;5.930;2024-03-07T08:59:11;6.37;67.27
75357;HTU21D;63946;51.986;5.930;2024-03-07T09:01:43;6.51;67.24
75357;HTU21D;63946;51.986;5.930;2024-03-07T09:04:12;6.63;66.94
75357;HTU21D;63946;51.986;5.930;2024-03-07T09:06:43;6.70;66.84
75357;HTU21D;63946;51.986;5.930;2024-03-07T09:09:15;6.75;66.51
75357;HTU21D;63946;51.986;5.930;2024-03-07T09:11:45;6.83;66.74
75357;HTU21D;63946;51.986;5.930;2024-03-07T09:14:14;6.98;66.62
75357;HTU21D;63946;51.986;5.930;2024-03-07T09:16:43;7.03;66.43
75357;HTU21D;63946;51.986;5.930;2024-03-07T09:19:14;7.09;66.33
75357;HTU21D;63946;51.986;5.930;2024-03-07T09:21:46;7.18;66.40
75357;HTU21D;63946;51.986;5.930;2024-03-07T09:24:16;7.29;65.89
75357;HTU21D;63946;51.986;5.930;2024-03-07T09:26:48;7.30;65.60
75357;HTU21D;63946;51.986;5.930;2024-03-07T09:29:18;7.35;65.44
75357;HTU21D;63946;51.986;5.930;2024-03-07T09:31:51;7.33;64.88
75357;HTU21D;63946;51.986;5.930;2024-03-07T09:34:20;7.37;65.16
75357;HTU21D;63946;51.986;5.930;2024-03-07T09:36:50;7.52;65.05
75357;HTU21D;63946;51.986;5.930;2024-03-07T09:39:23;7.60;64.69
75357;HTU21D;63946;51.986;5.930;2024-03-07T09:41:53;7.71;64.50
75357;HTU21D;63946;51.986;5.930;2024-03-07T09:44:23;7.83;64.62
75357;HTU21D;63946;51.986;5.930;2024-03-07T09:46:55;7.92;63.88
75357;HTU21D;63946;51.986;5.930;2024-03-07T09:49:25;7.98;63.88
75357;HTU21D;63946;51.986;5.930;2024-03-07T09:51:58;8.12;63.66
75357;HTU21D;63946;51.986;5.930;2024-03-07T09:54:27;8.27;63.05
75357;HTU21D;63946;51.986;5.930;2024-03-07T09:56:58;8.32;62.60
75357;HTU21D;63946;51.986;5.930;2024-03-07T09:59:28;8.42;62.50
75357;HTU21D;63946;51.986;5.930;2024-03-07T10:02:03;8.55;61.92
75357;HTU21D;63946;51.986;5.930;2024-03-07T10:04:43;8.56;60.89
75357;HTU21D;63946;51.986;5.930;2024-03-07T10:07:17;8.65;61.44
75357;HTU21D;63946;51.986;5.930;2024-03-07T10:09:47;8.80;61.04
75357;HTU21D;63946;51.986;5.930;2024-03-07T10:12:17;8.76;60.28
75357;HTU21D;63946;51.986;5.930;2024-03-07T10:14:52;8.76;60.22
75357;HTU21D;63946;51.986;5.930;2024-03-07T10:17:25;8.73;59.73
75357;HTU21D;63946;51.986;5.930;2024-03-07T10:19:55;8.63;60.08
75357;HTU21D;63946;51.986;5.930;2024-03-07T10:22:27;8.75;59.77
75357;HTU21D;63946;51.986;5.930;2024-03-07T10:24:56;8.70;60.09
75357;HTU21D;63946;51.986;5.930;2024-03-07T10:27:27;8.85;59.90
75357;HTU21D;63946;51.986;5.930;2024-03-07T10:29:57;8.92;60.02
75357;HTU21D;63946;51.986;5.930;2024-03-07T10:32:26;8.88;59.63
75357;HTU21D;63946;51.986;5.930;2024-03-07T10:34:55;8.87;59.91
75357;HTU21D;63946;51.986;5.930;2024-03-07T10:37:24;8.81;59.46
75357;HTU21D;63946;51.986;5.930;2024-03-07T10:39:53;8.72;60.09
75357;HTU21D;63946;51.986;5.930;2024-03-07T10:42:27;8.83;59.97
75357;HTU21D;63946;51.986;5.930;2024-03-07T10:45:03;8.73;59.90
75357;HTU21D;63946;51.986;5.930;2024-03-07T10:47:36;8.47;59.64
75357;HTU21D;63946;51.986;5.930;2024-03-07T10:52:59;8.39;60.33
75357;HTU21D;63946;51.986;5.930;2024-03-07T10:58:14;8.30;59.61
75357;HTU21D;63946;51.986;5.930;2024-03-07T11:00:52;8.38;60.16
75357;HTU21D;63946;51.986;5.930;2024-03-07T11:03:25;8.57;59.63
75357;HTU21D;63946;51.986;5.930;2024-03-07T11:05:55;8.58;59.72
75357;HTU21D;63946;51.986;5.930;2024-03-07T11:08:25;8.68;59.60
75357;HTU21D;63946;51.986;5.930;2024-03-07T11:10:54;8.71;59.69
75357;HTU21D;63946;51.986;5.930;2024-03-07T11:13:23;8.92;59.67
75357;HTU21D;63946;51.986;5.930;2024-03-07T11:15:52;9.03;59.34
75357;HTU21D;63946;51.986;5.930;2024-03-07T11:18:24;9.02;59.42
75357;HTU21D;63946;51.986;5.930;2024-03-07T11:20:54;9.15;59.28
75357;HTU21D;63946;51.986;5.930;2024-03-07T11:23:31;9.18;58.74
75357;HTU21D;63946;51.986;5.930;2024-03-07T11:26:05;9.10;58.69
75357;HTU21D;63946;51.986;5.930;2024-03-07T11:28:35;9.08;58.83
75357;HTU21D;63946;51.986;5.930;2024-03-07T11:34:14;9.12;58.42
75357;HTU21D;63946;51.986;5.930;2024-03-07T11:36:45;9.21;58.51
75357;HTU21D;63946;51.986;5.930;2024-03-07T11:39:47;9.34;58.25
75357;HTU21D;63946;51.986;5.930;2024-03-07T11:42:20;9.34;57.77
75357;HTU21D;63946;51.986;5.930;2024-03-07T11:44:51;9.31;58.19
75357;HTU21D;63946;51.986;5.930;2024-03-07T11:47:24;9.41;58.25
75357;HTU21D;63946;51.986;5.930;2024-03-07T11:49:55;9.56;57.93
75357;HTU21D;63946;51.986;5.930;2024-03-07T11:52:28;9.56;57.74
75357;HTU21D;63946;51.986;5.930;2024-03-07T11:54:58;9.44;57.14
75357;HTU21D;63946;51.986;5.930;2024-03-07T11:57:32;9.33;57.90
75357;HTU21D;63946;51.986;5.930;2024-03-07T12:00:02;9.44;58.35
75357;HTU21D;63946;51.986;5.930;2024-03-07T12:02:38;9.61;57.71
75357;HTU21D;63946;51.986;5.930;2024-03-07T12:05:09;9.63;57.82
75357;HTU21D;63946;51.986;5.930;2024-03-07T12:07:41;9.69;57.68
75357;HTU21D;63946;51.986;5.930;2024-03-07T12:10:10;9.85;57.51
75357;HTU21D;63946;51.986;5.930;2024-03-07T12:12:39;9.95;57.16
75357;HTU21D;63946;51.986;5.930;2024-03-07T12:15:09;10.07;57.03
75357;HTU21D;63946;51.986;5.930;2024-03-07T12:17:45;10.27;56.26
75357;HTU21D;63946;51.986;5.930;2024-03-07T12:20:16;10.33;56.26
75357;HTU21D;63946;51.986;5.930;2024-03-07T12:22:57;10.46;56.01
75357;HTU21D;63946;51.986;5.930;2024-03-07T12:25:29;10.57;55.86
75357;HTU21D;63946;51.986;5.930;2024-03-07T12:28:12;10.63;54.50
75357;HTU21D;63946;51.986;5.930;2024-03-07T12:33:16;10.38;55.26
75357;HTU21D;63946;51.986;5.930;2024-03-07T12:35:54;10.41;55.56
75357;HTU21D;63946;51.986;5.930;2024-03-07T12:38:32;10.41;56.08
75357;HTU21D;63946;51.986;5.930;2024-03-07T12:41:06;10.27;56.28
75357;HTU21D;63946;51.986;5.930;2024-03-07T12:43:43;10.15;57.02
75357;HTU21D;63946;51.986;5.930;2024-03-07T12:46:12;10.18;57.26
75357;HTU21D;63946;51.986;5.930;2024-03-07T12:48:41;10.24;57.21
75357;HTU21D;63946;51.986;5.930;2024-03-07T12:51:10;10.06;57.74
75357;HTU21D;63946;51.986;5.930;2024-03-07T12:53:42;10.18;57.93
75357;HTU21D;63946;51.986;5.930;2024-03-07T12:56:12;10.30;57.93
75357;HTU21D;63946;51.986;5.930;2024-03-07T12:58:44;10.31;57.46
75357;HTU21D;63946;51.986;5.930;2024-03-07T13:01:15;10.19;58.00
75357;HTU21D;63946;51.986;5.930;2024-03-07T13:03:46;10.08;58.22
75357;HTU21D;63946;51.986;5.930;2024-03-07T13:06:15;10.00;58.80
75357;HTU21D;63946;51.986;5.930;2024-03-07T13:08:45;10.12;58.85
75357;HTU21D;63946;51.986;5.930;2024-03-07T13:11:14;10.23;58.74
75357;HTU21D;63946;51.986;5.930;2024-03-07T13:13:43;10.09;58.77
75357;HTU21D;63946;51.986;5.930;2024-03-07T13:16:13;10.07;59.15
75357;HTU21D;63946;51.986;5.930;2024-03-07T13:18:42;10.18;59.21
75357;HTU21D;63946;51.986;5.930;2024-03-07T13:21:14;10.27;58.94
75357;HTU21D;63946;51.986;5.930;2024-03-07T13:23:46;10.26;59.31
75357;HTU21D;63946;51.986;5.930;2024-03-07T13:26:22;10.45;59.43
75357;HTU21D;63946;51.986;5.930;2024-03-07T13:28:55;10.52;59.18
75357;HTU21D;63946;51.986;5.930;2024-03-07T13:31:26;10.37;59.37
75357;HTU21D;63946;51.986;5.930;2024-03-07T13:33:55;10.16;59.61
75357;HTU21D;63946;51.986;5.930;2024-03-07T13:36:27;9.92;60.14
75357;HTU21D;63946;51.986;5.930;2024-03-07T13:38:58;9.83;60.60
75357;HTU21D;63946;51.986;5.930;2024-03-07T13:41:27;9.74;60.70
75357;HTU21D;63946;51.986;5.930;2024-03-07T13:43:56;9.70;61.14
75357;HTU21D;63946;51.986;5.930;2024-03-07T13:46:25;9.71;61.16
75357;HTU21D;63946;51.986;5.930;2024-03-07T13:48:54;9.75;61.44
75357;HTU21D;63946;51.986;5.930;2024-03-07T13:51:36;9.74;61.50
75357;HTU21D;63946;51.986;5.930;2024-03-07T13:54:07;9.64;61.70
75357;HTU21D;63946;51.986;5.930;2024-03-07T13:57:01;9.53;61.82
75357;HTU21D;63946;51.986;5.930;2024-03-07T14:02:41;9.33;62.52
75357;HTU21D;63946;51.986;5.930;2024-03-07T14:12:15;9.51;62.34
75357;HTU21D;63946;51.986;5.930;2024-03-07T14:18:08;9.50;61.82
75357;HTU21D;63946;51.986;5.930;2024-03-07T14:21:20;9.37;61.53
75357;HTU21D;63946;51.986;5.930;2024-03-07T14:27:14;9.29;61.81
75357;HTU21D;63946;51.986;5.930;2024-03-07T14:32:25;9.57;61.91
75357;HTU21D;63946;51.986;5.930;2024-03-07T14:35:18;9.84;60.93
75357;HTU21D;63946;51.986;5.930;2024-03-07T14:38:04;10.08;60.83
75357;HTU21D;63946;51.986;5.930;2024-03-07T14:40:34;10.38;60.36
75357;HTU21D;63946;51.986;5.930;2024-03-07T14:43:04;10.44;59.82
75357;HTU21D;63946;51.986;5.930;2024-03-07T14:45:39;10.45;59.44
75357;HTU21D;63946;51.986;5.930;2024-03-07T14:48:11;10.51;59.67
75357;HTU21D;63946;51.986;5.930;2024-03-07T14:50:44;10.55;59.42
75357;HTU21D;63946;51.986;5.930;2024-03-07T14:53:14;10.53;59.60
75357;HTU21D;63946;51.986;5.930;2024-03-07T14:55:45;10.58;59.32
75357;HTU21D;63946;51.986;5.930;2024-03-07T14:58:17;10.44;59.33
75357;HTU21D;63946;51.986;5.930;2024-03-07T15:00:46;10.30;59.64
75357;HTU21D;63946;51.986;5.930;2024-03-07T15:03:16;10.14;59.99
75357;HTU21D;63946;51.986;5.930;2024-03-07T15:05:45;10.00;60.14
75357;HTU21D;63946;51.986;5.930;2024-03-07T15:08:15;10.00;60.70
75357;HTU21D;63946;51.986;5.930;2024-03-07T15:10:49;10.07;60.79
75357;HTU21D;63946;51.986;5.930;2024-03-07T15:13:20;10.06;60.66
75357;HTU21D;63946;51.986;5.930;2024-03-07T15:15:49;10.05;60.71
75357;HTU21D;63946;51.986;5.930;2024-03-07T15:18:17;10.07;60.75
75357;HTU21D;63946;51.986;5.930;2024-03-07T15:20:47;10.04;60.66
75357;HTU21D;63946;51.986;5.930;2024-03-07T15:23:16;10.01;60.91
75357;HTU21D;63946;51.986;5.930;2024-03-07T15:25:44;10.06;61.05
75357;HTU21D;63946;51.986;5.930;2024-03-07T15:28:13;9.99;61.03
75357;HTU21D;63946;51.986;5.930;2024-03-07T15:30:42;9.98;61.00
75357;HTU21D;63946;51.986;5.930;2024-03-07T15:33:11;9.96;61.05
75357;HTU21D;63946;51.986;5.930;2024-03-07T15:35:41;9.86;61.57
75357;HTU21D;63946;51.986;5.930;2024-03-07T15:38:10;9.84;61.67
75357;HTU21D;63946;51.986;5.930;2024-03-07T15:40:42;9.72;61.86
75357;HTU21D;63946;51.986;5.930;2024-03-07T15:43:11;9.64;62.17
75357;HTU21D;63946;51.986;5.930;2024-03-07T15:45:40;9.59;62.33
75357;HTU21D;63946;51.986;5.930;2024-03-07T15:48:09;9.59;62.29
75357;HTU21D;63946;51.986;5.930;2024-03-07T15:50:40;9.50;62.21
75357;HTU21D;63946;51.986;5.930;2024-03-07T15:53:12;9.49;62.41
75357;HTU21D;63946;51.986;5.930;2024-03-07T15:55:41;9.44;62.12
75357;HTU21D;63946;51.986;5.930;2024-03-07T15:58:09;9.37;62.39
75357;HTU21D;63946;51.986;5.930;2024-03-07T16:00:43;9.34;62.53
75357;HTU21D;63946;51.986;5.930;2024-03-07T16:03:13;9.44;62.71
75357;HTU21D;63946;51.986;5.930;2024-03-07T16:05:42;9.54;62.60
75357;HTU21D;63946;51.986;5.930;2024-03-07T16:08:14;9.56;62.36
75357;HTU21D;63946;51.986;5.930;2024-03-07T16:10:43;9.65;62.07
75357;HTU21D;63946;51.986;5.930;2024-03-07T16:13:13;9.76;61.75
75357;HTU21D;63946;51.986;5.930;2024-03-07T16:15:44;9.83;61.30
75357;HTU21D;63946;51.986;5.930;2024-03-07T16:18:20;9.80;60.88
75357;HTU21D;63946;51.986;5.930;2024-03-07T16:20:51;9.80;60.73
75357;HTU21D;63946;51.986;5.930;2024-03-07T16:23:24;9.84;60.77
75357;HTU21D;63946;51.986;5.930;2024-03-07T16:25:55;9.84;60.55
75357;HTU21D;63946;51.986;5.930;2024-03-07T16:28:24;9.77;60.87
75357;HTU21D;63946;51.986;5.930;2024-03-07T16:30:54;9.70;60.87
75357;HTU21D;63946;51.986;5.930;2024-03-07T16:33:23;9.68;61.22
75357;HTU21D;63946;51.986;5.930;2024-03-07T16:35:54;9.61;61.41
75357;HTU21D;63946;51.986;5.930;2024-03-07T16:38:23;9.51;61.83
75357;HTU21D;63946;51.986;5.930;2024-03-07T16:40:54;9.40;62.05
75357;HTU21D;63946;51.986;5.930;2024-03-07T16:43:25;9.22;62.42
75357;HTU21D;63946;51.986;5.930;2024-03-07T16:45:54;9.12;62.78
75357;HTU21D;63946;51.986;5.930;2024-03-07T16:48:22;9.05;62.92
75357;HTU21D;63946;51.986;5.930;2024-03-07T16:50:51;8.93;63.03
75357;HTU21D;63946;51.986;5.930;2024-03-07T16:53:20;8.80;63.16
75357;HTU21D;63946;51.986;5.930;2024-03-07T16:55:52;8.67;63.39
75357;HTU21D;63946;51.986;5.930;2024-03-07T16:58:22;8.60;63.70
75357;HTU21D;63946;51.986;5.930;2024-03-07T17:00:50;8.53;63.66
75357;HTU21D;63946;51.986;5.930;2024-03-07T17:03:22;8.46;63.76
75357;HTU21D;63946;51.986;5.930;2024-03-07T17:05:50;8.38;63.78
75357;HTU21D;63946;51.986;5.930;2024-03-07T17:08:19;8.32;63.85
75357;HTU21D;63946;51.986;5.930;2024-03-07T17:10:50;8.27;64.03
75357;HTU21D;63946;51.986;5.930;2024-03-07T17:13:19;8.19;64.09
75357;HTU21D;63946;51.986;5.930;2024-03-07T17:15:48;8.16;64.25
75357;HTU21D;63946;51.986;5.930;2024-03-07T17:18:22;8.14;64.21
75357;HTU21D;63946;51.986;5.930;2024-03-07T17:20:51;8.07;64.32
75357;HTU21D;63946;51.986;5.930;2024-03-07T17:23:23;8.02;64.35
75357;HTU21D;63946;51.986;5.930;2024-03-07T17:25:54;7.99;64.43
75357;HTU21D;63946;51.986;5.930;2024-03-07T17:28:24;7.96;64.44
75357;HTU21D;63946;51.986;5.930;2024-03-07T17:30:55;7.96;64.43
75357;HTU21D;63946;51.986;5.930;2024-03-07T17:33:24;7.96;64.22
75357;HTU21D;63946;51.986;5.930;2024-03-07T17:35:53;7.88;64.23
75357;HTU21D;63946;51.986;5.930;2024-03-07T17:38:22;7.82;64.31
75357;HTU21D;63946;51.986;5.930;2024-03-07T17:40:52;7.82;64.27
75357;HTU21D;63946;51.986;5.930;2024-03-07T17:43:35;7.79;64.16
75357;HTU21D;63946;51.986;5.930;2024-03-07T17:46:04;7.75;64.32
75357;HTU21D;63946;51.986;5.930;2024-03-07T17:48:33;7.74;64.32
75357;HTU21D;63946;51.986;5.930;2024-03-07T17:51:02;7.75;64.34
75357;HTU21D;63946;51.986;5.930;2024-03-07T17:53:38;7.70;64.38
75357;HTU21D;63946;51.986;5.930;2024-03-07T17:56:07;7.71;64.41
75357;HTU21D;63946;51.986;5.930;2024-03-07T17:58:36;7.64;64.38
75357;HTU21D;63946;51.986;5.930;2024-03-07T18:01:05;7.58;64.43
75357;HTU21D;63946;51.986;5.930;2024-03-07T18:03:40;7.55;64.68
75357;HTU21D;63946;51.986;5.930;2024-03-07T18:06:10;7.56;64.76
75357;HTU21D;63946;51.986;5.930;2024-03-07T18:08:39;7.56;64.79
75357;HTU21D;63946;51.986;5.930;2024-03-07T18:11:08;7.52;64.79
75357;HTU21D;63946;51.986;5.930;2024-03-07T18:13:40;7.48;64.92
75357;HTU21D;63946;51.986;5.930;2024-03-07T18:16:08;7.49;64.95
75357;HTU21D;63946;51.986;5.930;2024-03-07T18:18:45;7.49;64.99
75357;HTU21D;63946;51.986;5.930;2024-03-07T18:21:14;7.50;65.01
75357;HTU21D;63946;51.986;5.930;2024-03-07T18:23:46;7.46;65.07
75357;HTU21D;63946;51.986;5.930;2024-03-07T18:26:18;7.44;65.11
75357;HTU21D;63946;51.986;5.930;2024-03-07T18:28:49;7.41;65.14
75357;HTU21D;63946;51.986;5.930;2024-03-07T18:31:19;7.37;65.22
75357;HTU21D;63946;51.986;5.930;2024-03-07T18:34:00;7.33;65.28
75357;HTU21D;63946;51.986;5.930;2024-03-07T18:36:32;7.27;65.44
75357;HTU21D;63946;51.986;5.930;2024-03-07T18:39:01;7.25;65.61
75357;HTU21D;63946;51.986;5.930;2024-03-07T18:41:41;7.25;65.70
75357;HTU21D;63946;51.986;5.930;2024-03-07T18:44:16;7.20;65.78
75357;HTU21D;63946;51.986;5.930;2024-03-07T18:46:45;7.13;65.92
75357;HTU21D;63946;51.986;5.930;2024-03-07T18:49:16;7.08;66.09
75357;HTU21D;63946;51.986;5.930;2024-03-07T18:51:46;6.99;66.28
75357;HTU21D;63946;51.986;5.930;2024-03-07T18:54:20;6.95;66.43
75357;HTU21D;63946;51.986;5.930;2024-03-07T18:56:50;6.88;66.62
75357;HTU21D;63946;51.986;5.930;2024-03-07T18:59:19;6.84;66.79
75357;HTU21D;63946;51.986;5.930;2024-03-07T19:01:48;6.83;66.82
75357;HTU21D;63946;51.986;5.930;2024-03-07T19:04:18;6.76;67.00
75357;HTU21D;63946;51.986;5.930;2024-03-07T19:06:47;6.73;67.17
75357;HTU21D;63946;51.986;5.930;2024-03-07T19:09:23;6.70;67.31
75357;HTU21D;63946;51.986;5.930;2024-03-07T19:11:58;6.68;67.43
75357;HTU21D;63946;51.986;5.930;2024-03-07T19:14:26;6.67;67.60
75357;HTU21D;63946;51.986;5.930;2024-03-07T19:16:55;6.64;67.67
75357;HTU21D;63946;51.986;5.930;2024-03-07T19:19:36;6.56;67.84
75357;HTU21D;63946;51.986;5.930;2024-03-07T19:22:05;6.54;67.91
75357;HTU21D;63946;51.986;5.930;2024-03-07T19:24:35;6.49;67.98
75357;HTU21D;63946;51.986;5.930;2024-03-07T19:27:05;6.48;68.14
75357;HTU21D;63946;51.986;5.930;2024-03-07T19:29:37;6.44;68.23
75357;HTU21D;63946;51.986;5.930;2024-03-07T19:32:07;6.39;68.43
75357;HTU21D;63946;51.986;5.930;2024-03-07T19:34:36;6.37;68.49
75357;HTU21D;63946;51.986;5.930;2024-03-07T19:37:06;6.36;68.45
75357;HTU21D;63946;51.986;5.930;2024-03-07T19:39:42;6.28;68.73
75357;HTU21D;63946;51.986;5.930;2024-03-07T19:42:15;6.27;68.80
75357;HTU21D;63946;51.986;5.930;2024-03-07T19:44:44;6.21;68.91
75357;HTU21D;63946;51.986;5.930;2024-03-07T19:47:12;6.21;69.01
75357;HTU21D;63946;51.986;5.930;2024-03-07T19:49:42;6.20;69.04
75357;HTU21D;63946;51.986;5.930;2024-03-07T19:52:11;6.14;69.13
75357;HTU21D;63946;51.986;5.930;2024-03-07T19:54:43;6.13;69.27
75357;HTU21D;63946;51.986;5.930;2024-03-07T19:57:13;6.08;69.38
75357;HTU21D;63946;51.986;5.930;2024-03-07T19:59:49;6.06;69.39
75357;HTU21D;63946;51.986;5.930;2024-03-07T20:02:20;6.00;69.55
75357;HTU21D;63946;51.986;5.930;2024-03-07T20:04:49;5.97;69.69
75357;HTU21D;63946;51.986;5.930;2024-03-07T20:07:19;5.96;69.76
75357;HTU21D;63946;51.986;5.930;2024-03-07T20:09:48;5.93;69.94
75357;HTU21D;63946;51.986;5.930;2024-03-07T20:12:22;5.89;70.11
75357;HTU21D;63946;51.986;5.930;2024-03-07T20:14:51;5.89;70.13
75357;HTU21D;63946;51.986;5.930;2024-03-07T20:17:20;5.86;70.30
75357;HTU21D;63946;51.986;5.930;2024-03-07T20:19:49;5.84;70.40
75357;HTU21D;63946;51.986;5.930;2024-03-07T20:22:20;5.85;70.42
75357;HTU21D;63946;51.986;5.930;2024-03-07T20:24:49;5.83;70.49
75357;HTU21D;63946;51.986;5.930;2024-03-07T20:27:19;5.78;70.63
75357;HTU21D;63946;51.986;5.930;2024-03-07T20:29:46;5.74;70.81
75357;HTU21D;63946;51.986;5.930;2024-03-07T20:32:15;5.72;70.90
75357;HTU21D;63946;51.986;5.930;2024-03-07T20:34:44;5.69;70.97
75357;HTU21D;63946;51.986;5.930;2024-03-07T20:37:13;5.68;71.06
75357;HTU21D;63946;51.986;5.930;2024-03-07T20:39:41;5.65;71.19
75357;HTU21D;63946;51.986;5.930;2024-03-07T20:42:13;5.62;71.22
75357;HTU21D;63946;51.986;5.930;2024-03-07T20:44:43;5.63;71.22
75357;HTU21D;63946;51.986;5.930;2024-03-07T20:47:14;5.60;71.27
75357;HTU21D;63946;51.986;5.930;2024-03-07T20:49:49;5.56;71.29
75357;HTU21D;63946;51.986;5.930;2024-03-07T20:52:18;5.53;71.37
75357;HTU21D;63946;51.986;5.930;2024-03-07T20:54:47;5.52;71.46
75357;HTU21D;63946;51.986;5.930;2024-03-07T20:57:16;5.52;71.49
75357;HTU21D;63946;51.986;5.930;2024-03-07T20:59:45;5.51;71.45
75357;HTU21D;63946;51.986;5.930;2024-03-07T21:02:17;5.48;71.48
75357;HTU21D;63946;51.986;5.930;2024-03-07T21:04:52;5.48;71.48
75357;HTU21D;63946;51.986;5.930;2024-03-07T21:07:21;5.47;71.48
75357;HTU21D;63946;51.986;5.930;2024-03-07T21:09:50;5.41;71.45
75357;HTU21D;63946;51.986;5.930;2024-03-07T21:12:20;5.39;71.51
75357;HTU21D;63946;51.986;5.930;2024-03-07T21:14:50;5.39;71.64
75357;HTU21D;63946;51.986;5.930;2024-03-07T21:17:19;5.38;71.62
75357;HTU21D;63946;51.986;5.930;2024-03-07T21:19:48;5.40;71.60
75357;HTU21D;63946;51.986;5.930;2024-03-07T21:22:17;5.38;71.56
75357;HTU21D;63946;51.986;5.930;2024-03-07T21:24:46;5.36;71.60
75357;HTU21D;63946;51.986;5.930;2024-03-07T21:27:15;5.32;71.61
75357;HTU21D;63946;51.986;5.930;2024-03-07T21:29:44;5.28;71.77
75357;HTU21D;63946;51.986;5.930;2024-03-07T21:32:15;5.27;71.76
75357;HTU21D;63946;51.986;5.930;2024-03-07T21:34:44;5.26;71.76
75357;HTU21D;63946;51.986;5.930;2024-03-07T21:37:13;5.24;71.79
75357;HTU21D;63946;51.986;5.930;2024-03-07T21:39:44;5.26;71.85
75357;HTU21D;63946;51.986;5.930;2024-03-07T21:42:14;5.26;71.77
75357;HTU21D;63946;51.986;5.930;2024-03-07T21:44:46;5.24;71.79
75357;HTU21D;63946;51.986;5.930;2024-03-07T21:47:18;5.25;71.72
75357;HTU21D;63946;51.986;5.930;2024-03-07T21:49:47;5.27;71.77
75357;HTU21D;63946;51.986;5.930;2024-03-07T21:52:16;5.25;71.72
75357;HTU21D;63946;51.986;5.930;2024-03-07T21:54:45;5.23;71.77
75357;HTU21D;63946;51.986;5.930;2024-03-07T21:57:14;5.24;71.67
75357;HTU21D;63946;51.986;5.930;2024-03-07T21:59:43;5.22;71.67
75357;HTU21D;63946;51.986;5.930;2024-03-07T22:02:15;5.21;71.59
75357;HTU21D;63946;51.986;5.930;2024-03-07T22:04:44;5.18;71.58
75357;HTU21D;63946;51.986;5.930;2024-03-07T22:07:13;5.13;71.58